sensor_id;sensor_type;location;lat;lon;timestamp;pressure;altitude;pressure_sealevel;temperature
68446;BMP280;35789;48.414;12.768;2023-02-13T00:00:00;99050.0;;;
68446;BMP280;35789;48.414;12.768;2023-02-13T00:05:00;99040.0;;;
68446;BMP280;35789;48.414;12.768;2023-02-13T00:10:00;99030.0;;;
68446;BMP280;35789;48.414;12.768;2023-02-13T00:15:00;99030.0;;;
68446;BMP280;35789;48.414;12.768;2023-02-13T00:20:00;99020.0;;;
68446;BMP280;35789;48.414;12.768;2023-02-13T00:25:00;99020.0;;;
68446;BMP280;35789;48.414;12.768;2023-02-13T00:30:01;99010.0;;;
68446;BMP280;35789;48.414;12.768;2023-02-13T00:35:00;99030.0;;;
68446;BMP280;35789;48.414;12.768;2023-02-13T00:40:00;99020.0;;;
68446;BMP280;35789;48.414;12.768;2023-02-13T00:45:00;99020.0;;;
68446;BMP280;35789;48.414;12.768;2023-02-13T00:50:00;99020.0;;;
68446;BMP280;35789;48.414;12.768;2023-02-13T00:55:00;99020.0;;;
68446;BMP280;35789;48.414;12.768;2023-02-13T01:00:00;99020.0;;;
68446;BMP280;35789;48.414;12.768;2023-02-13T01:05:00;99010.0;;;
68446;BMP280;35789;48.414;12.768;2023-02-13T01:10:00;99020.0;;;
68446;BMP280;35789;48.414;12.768;2023-02-13T01:15:01;99010.0;;;
68446;BMP280;35789;48.414;12.768;2023-02-13T01:20:00;99010.0;;;
68446;BMP280;35789;48.414;12.768;2023-02-13T01:25:00;99020.0;;;
68446;BMP280;35789;48.414;12.768;2023-02-13T01:30:00;99030.0;;;
68446;BMP280;35789;48.414;12.768;2023-02-13T01:35:00;99020.0;;;
68446;BMP280;35789;48.414;12.768;2023-02-13T01:40:01;99030.0;;;
68446;BMP280;35789;48.414;12.768;2023-02-13T01:45:03;99020.0;;;
68446;BMP280;35789;48.414;12.768;2023-02-13T01:50:06;99020.0;;;
68446;BMP280;35789;48.414;12.768;2023-02-13T01:55:00;99020.0;;;
68446;BMP280;35789;48.414;12.768;2023-02-13T02:00:05;99030.0;;;
68446;BMP280;35789;48.414;12.768;2023-02-13T02:05:02;99030.0;;;
68446;BMP280;35789;48.414;12.768;2023-02-13T02:10:06;99030.0;;;
68446;BMP280;35789;48.414;12.768;2023-02-13T02:15:03;99030.0;;;
68446;BMP280;35789;48.414;12.768;2023-02-13T02:20:15;99030.0;;;
68446;BMP280;35789;48.414;12.768;2023-02-13T02:25:25;99030.0;;;
68446;BMP280;35789;48.414;12.768;2023-02-13T02:30:25;99030.0;;;
68446;BMP280;35789;48.414;12.768;2023-02-13T02:35:14;99020.0;;;
68446;BMP280;35789;48.414;12.768;2023-02-13T02:40:17;99020.0;;;
68446;BMP280;35789;48.414;12.768;2023-02-13T02:45:08;99020.0;;;
68446;BMP280;35789;48.414;12.768;2023-02-13T02:50:13;99010.0;;;
68446;BMP280;35789;48.414;12.768;2023-02-13T02:55:06;99010.0;;;
68446;BMP280;35789;48.414;12.768;2023-02-13T03:00:00;99010.0;;;
68446;BMP280;35789;48.414;12.768;2023-02-13T03:05:02;99010.0;;;
68446;BMP280;35789;48.414;12.768;2023-02-13T03:10:05;99000.0;;;
68446;BMP280;35789;48.414;12.768;2023-02-13T03:15:00;99010.0;;;
68446;BMP280;35789;48.414;12.768;2023-02-13T03:20:14;99000.0;;;
68446;BMP280;35789;48.414;12.768;2023-02-13T03:25:11;99000.0;;;
68446;BMP280;35789;48.414;12.768;2023-02-13T03:30:15;99000.0;;;
68446;BMP280;35789;48.414;12.768;2023-02-13T03:35:15;99000.0;;;
68446;BMP280;35789;48.414;12.768;2023-02-13T03:40:07;99000.0;;;
68446;BMP280;35789;48.414;12.768;2023-02-13T03:45:05;99010.0;;;
68446;BMP280;35789;48.414;12.768;2023-02-13T03:50:03;99000.0;;;
68446;BMP280;35789;48.414;12.768;2023-02-13T03:55:07;99000.0;;;
68446;BMP280;35789;48.414;12.768;2023-02-13T04:00:04;99000.0;;;
68446;BMP280;35789;48.414;12.768;2023-02-13T04:05:08;99010.0;;;
68446;BMP280;35789;48.414;12.768;2023-02-13T04:10:05;99000.0;;;
68446;BMP280;35789;48.414;12.768;2023-02-13T04:15:07;99010.0;;;
68446;BMP280;35789;48.414;12.768;2023-02-13T04:20:00;99010.0;;;
68446;BMP280;35789;48.414;12.768;2023-02-13T04:25:00;99000.0;;;
68446;BMP280;35789;48.414;12.768;2023-02-13T04:30:00;99000.0;;;
68446;BMP280;35789;48.414;12.768;2023-02-13T04:35:00;99000.0;;;
68446;BMP280;35789;48.414;12.768;2023-02-13T04:40:00;99010.0;;;
68446;BMP280;35789;48.414;12.768;2023-02-13T04:45:00;99000.0;;;
68446;BMP280;35789;48.414;12.768;2023-02-13T04:50:00;99000.0;;;
68446;BMP280;35789;48.414;12.768;2023-02-13T04:55:00;99000.0;;;
68446;BMP280;35789;48.414;12.768;2023-02-13T05:00:00;99000.0;;;
68446;BMP280;35789;48.414;12.768;2023-02-13T05:05:00;98990.0;;;
68446;BMP280;35789;48.414;12.768;2023-02-13T05:10:00;99000.0;;;
68446;BMP280;35789;48.414;12.768;2023-02-13T05:15:00;99000.0;;;
68446;BMP280;35789;48.414;12.768;2023-02-13T05:20:00;99000.0;;;
68446;BMP280;35789;48.414;12.768;2023-02-13T05:25:00;99000.0;;;
68446;BMP280;35789;48.414;12.768;2023-02-13T05:30:00;99000.0;;;
68446;BMP280;35789;48.414;12.768;2023-02-13T05:35:00;99000.0;;;
68446;BMP280;35789;48.414;12.768;2023-02-13T05:40:00;99000.0;;;
68446;BMP280;35789;48.414;12.768;2023-02-13T05:45:00;99000.0;;;
68446;BMP280;35789;48.414;12.768;2023-02-13T05:50:00;99000.0;;;
68446;BMP280;35789;48.414;12.768;2023-02-13T05:55:00;99000.0;;;
68446;BMP280;35789;48.414;12.768;2023-02-13T06:00:02;99010.0;;;
68446;BMP280;35789;48.414;12.768;2023-02-13T06:05:00;99010.0;;;
68446;BMP280;35789;48.414;12.768;2023-02-13T06:10:00;99010.0;;;
68446;BMP280;35789;48.414;12.768;2023-02-13T06:15:00;99020.0;;;
68446;BMP280;35789;48.414;12.768;2023-02-13T06:20:00;99020.0;;;
68446;BMP280;35789;48.414;12.768;2023-02-13T06:25:00;99030.0;;;
68446;BMP280;35789;48.414;12.768;2023-02-13T06:30:00;99040.0;;;
68446;BMP280;35789;48.414;12.768;2023-02-13T06:35:00;99040.0;;;
68446;BMP280;35789;48.414;12.768;2023-02-13T06:40:01;99050.0;;;
68446;BMP280;35789;48.414;12.768;2023-02-13T06:45:01;99050.0;;;
68446;BMP280;35789;48.414;12.768;2023-02-13T06:50:01;99060.0;;;
68446;BMP280;35789;48.414;12.768;2023-02-13T06:55:00;99060.0;;;
68446;BMP280;35789;48.414;12.768;2023-02-13T07:00:00;99070.0;;;
68446;BMP280;35789;48.414;12.768;2023-02-13T07:05:00;99070.0;;;
68446;BMP280;35789;48.414;12.768;2023-02-13T07:10:02;99070.0;;;
68446;BMP280;35789;48.414;12.768;2023-02-13T07:15:00;99080.0;;;
68446;BMP280;35789;48.414;12.768;2023-02-13T07:20:00;99080.0;;;
68446;BMP280;35789;48.414;12.768;2023-02-13T07:25:00;99080.0;;;
68446;BMP280;35789;48.414;12.768;2023-02-13T07:30:00;99090.0;;;
68446;BMP280;35789;48.414;12.768;2023-02-13T07:35:00;99100.0;;;
68446;BMP280;35789;48.414;12.768;2023-02-13T07:40:00;99100.0;;;
68446;BMP280;35789;48.414;12.768;2023-02-13T07:45:00;99100.0;;;
68446;BMP280;35789;48.414;12.768;2023-02-13T07:50:00;99110.0;;;
68446;BMP280;35789;48.414;12.768;2023-02-13T07:55:00;99120.0;;;
68446;BMP280;35789;48.414;12.768;2023-02-13T08:00:01;99120.0;;;
68446;BMP280;35789;48.414;12.768;2023-02-13T08:05:00;99120.0;;;
68446;BMP280;35789;48.414;12.768;2023-02-13T08:10:01;99120.0;;;
68446;BMP280;35789;48.414;12.768;2023-02-13T08:15:01;99110.0;;;
68446;BMP280;35789;48.414;12.768;2023-02-13T08:20:00;99120.0;;;
68446;BMP280;35789;48.414;12.768;2023-02-13T08:25:00;99110.0;;;
68446;BMP280;35789;48.414;12.768;2023-02-13T08:30:01;99110.0;;;
68446;BMP280;35789;48.414;12.768;2023-02-13T08:35:00;99120.0;;;
68446;BMP280;35789;48.414;12.768;2023-02-13T08:40:00;99120.0;;;
68446;BMP280;35789;48.414;12.768;2023-02-13T08:45:00;99120.0;;;
68446;BMP280;35789;48.414;12.768;2023-02-13T08:50:00;99120.0;;;
68446;BMP280;35789;48.414;12.768;2023-02-13T08:55:00;99120.0;;;
68446;BMP280;35789;48.414;12.768;2023-02-13T09:00:00;99120.0;;;
68446;BMP280;35789;48.414;12.768;2023-02-13T09:05:00;99120.0;;;
68446;BMP280;35789;48.414;12.768;2023-02-13T09:10:00;99120.0;;;
68446;BMP280;35789;48.414;12.768;2023-02-13T09:15:00;99120.0;;;
68446;BMP280;35789;48.414;12.768;2023-02-13T09:20:00;99120.0;;;
68446;BMP280;35789;48.414;12.768;2023-02-13T09:25:00;99120.0;;;
68446;BMP280;35789;48.414;12.768;2023-02-13T09:30:01;99110.0;;;
68446;BMP280;35789;48.414;12.768;2023-02-13T09:35:00;99120.0;;;
68446;BMP280;35789;48.414;12.768;2023-02-13T09:40:00;99130.0;;;
68446;BMP280;35789;48.414;12.768;2023-02-13T09:45:04;99130.0;;;
68446;BMP280;35789;48.414;12.768;2023-02-13T09:50:06;99140.0;;;
68446;BMP280;35789;48.414;12.768;2023-02-13T09:55:01;99120.0;;;
68446;BMP280;35789;48.414;12.768;2023-02-13T10:00:09;99120.0;;;
68446;BMP280;35789;48.414;12.768;2023-02-13T10:05:18;99130.0;;;
68446;BMP280;35789;48.414;12.768;2023-02-13T10:10:09;99130.0;;;
68446;BMP280;35789;48.414;12.768;2023-02-13T10:15:20;99130.0;;;
68446;BMP280;35789;48.414;12.768;2023-02-13T10:20:06;99130.0;;;
68446;BMP280;35789;48.414;12.768;2023-02-13T10:25:05;99120.0;;;
68446;BMP280;35789;48.414;12.768;2023-02-13T10:30:06;99120.0;;;
68446;BMP280;35789;48.414;12.768;2023-02-13T10:35:02;99110.0;;;
68446;BMP280;35789;48.414;12.768;2023-02-13T10:40:00;99120.0;;;
68446;BMP280;35789;48.414;12.768;2023-02-13T10:45:18;99110.0;;;
68446;BMP280;35789;48.414;12.768;2023-02-13T10:50:13;99110.0;;;
68446;BMP280;35789;48.414;12.768;2023-02-13T10:55:17;99100.0;;;
68446;BMP280;35789;48.414;12.768;2023-02-13T11:00:09;99100.0;;;
68446;BMP280;35789;48.414;12.768;2023-02-13T11:05:14;99090.0;;;
68446;BMP280;35789;48.414;12.768;2023-02-13T11:10:14;99090.0;;;
68446;BMP280;35789;48.414;12.768;2023-02-13T11:15:04;99090.0;;;
68446;BMP280;35789;48.414;12.768;2023-02-13T11:20:05;99080.0;;;
68446;BMP280;35789;48.414;12.768;2023-02-13T11:25:06;99080.0;;;
68446;BMP280;35789;48.414;12.768;2023-02-13T11:30:05;99080.0;;;
68446;BMP280;35789;48.414;12.768;2023-02-13T11:35:29;99070.0;;;
68446;BMP280;35789;48.414;12.768;2023-02-13T11:40:27;99070.0;;;
68446;BMP280;35789;48.414;12.768;2023-02-13T11:45:04;99070.0;;;
68446;BMP280;35789;48.414;12.768;2023-02-13T11:50:01;99070.0;;;
68446;BMP280;35789;48.414;12.768;2023-02-13T11:55:04;99070.0;;;
68446;BMP280;35789;48.414;12.768;2023-02-13T12:05:15;99060.0;;;
68446;BMP280;35789;48.414;12.768;2023-02-13T12:10:17;99070.0;;;
68446;BMP280;35789;48.414;12.768;2023-02-13T12:15:14;99070.0;;;
68446;BMP280;35789;48.414;12.768;2023-02-13T12:20:00;99060.0;;;
68446;BMP280;35789;48.414;12.768;2023-02-13T12:25:20;99050.0;;;
68446;BMP280;35789;48.414;12.768;2023-02-13T12:30:26;99040.0;;;
68446;BMP280;35789;48.414;12.768;2023-02-13T12:35:17;99050.0;;;
68446;BMP280;35789;48.414;12.768;2023-02-13T12:40:22;99050.0;;;
68446;BMP280;35789;48.414;12.768;2023-02-13T12:45:15;99050.0;;;
68446;BMP280;35789;48.414;12.768;2023-02-13T12:50:23;99040.0;;;
68446;BMP280;35789;48.414;12.768;2023-02-13T12:55:16;99040.0;;;
68446;BMP280;35789;48.414;12.768;2023-02-13T13:00:19;99030.0;;;
68446;BMP280;35789;48.414;12.768;2023-02-13T13:05:13;99020.0;;;
68446;BMP280;35789;48.414;12.768;2023-02-13T13:10:22;99020.0;;;
68446;BMP280;35789;48.414;12.768;2023-02-13T13:15:10;99020.0;;;
68446;BMP280;35789;48.414;12.768;2023-02-13T13:20:11;99020.0;;;
68446;BMP280;35789;48.414;12.768;2023-02-13T13:25:14;99010.0;;;
68446;BMP280;35789;48.414;12.768;2023-02-13T13:30:05;99010.0;;;
68446;BMP280;35789;48.414;12.768;2023-02-13T13:35:01;99010.0;;;
68446;BMP280;35789;48.414;12.768;2023-02-13T13:40:21;99010.0;;;
68446;BMP280;35789;48.414;12.768;2023-02-13T13:45:20;99000.0;;;
68446;BMP280;35789;48.414;12.768;2023-02-13T13:50:02;99000.0;;;
68446;BMP280;35789;48.414;12.768;2023-02-13T13:55:02;98990.0;;;
68446;BMP280;35789;48.414;12.768;2023-02-13T14:00:22;99000.0;;;
68446;BMP280;35789;48.414;12.768;2023-02-13T14:05:08;98990.0;;;
68446;BMP280;35789;48.414;12.768;2023-02-13T14:10:01;98990.0;;;
68446;BMP280;35789;48.414;12.768;2023-02-13T14:15:00;98980.0;;;
68446;BMP280;35789;48.414;12.768;2023-02-13T14:20:00;98980.0;;;
68446;BMP280;35789;48.414;12.768;2023-02-13T14:25:04;98980.0;;;
68446;BMP280;35789;48.414;12.768;2023-02-13T14:30:01;98990.0;;;
68446;BMP280;35789;48.414;12.768;2023-02-13T14:35:04;98990.0;;;
68446;BMP280;35789;48.414;12.768;2023-02-13T14:40:10;98990.0;;;
68446;BMP280;35789;48.414;12.768;2023-02-13T14:45:04;98980.0;;;
68446;BMP280;35789;48.414;12.768;2023-02-13T14:50:04;98970.0;;;
68446;BMP280;35789;48.414;12.768;2023-02-13T14:55:03;98970.0;;;
68446;BMP280;35789;48.414;12.768;2023-02-13T15:00:15;98970.0;;;
68446;BMP280;35789;48.414;12.768;2023-02-13T15:05:04;98970.0;;;
68446;BMP280;35789;48.414;12.768;2023-02-13T15:10:06;98970.0;;;
68446;BMP280;35789;48.414;12.768;2023-02-13T15:15:21;98960.0;;;
68446;BMP280;35789;48.414;12.768;2023-02-13T15:20:07;98970.0;;;
68446;BMP280;35789;48.414;12.768;2023-02-13T15:25:01;98970.0;;;
68446;BMP280;35789;48.414;12.768;2023-02-13T15:30:13;98970.0;;;
68446;BMP280;35789;48.414;12.768;2023-02-13T15:35:00;98970.0;;;
68446;BMP280;35789;48.414;12.768;2023-02-13T15:40:15;98970.0;;;
68446;BMP280;35789;48.414;12.768;2023-02-13T15:45:00;98960.0;;;
68446;BMP280;35789;48.414;12.768;2023-02-13T15:50:00;98970.0;;;
68446;BMP280;35789;48.414;12.768;2023-02-13T15:55:00;98960.0;;;
68446;BMP280;35789;48.414;12.768;2023-02-13T16:00:02;98970.0;;;
68446;BMP280;35789;48.414;12.768;2023-02-13T16:05:01;98970.0;;;
68446;BMP280;35789;48.414;12.768;2023-02-13T16:10:14;98970.0;;;
68446;BMP280;35789;48.414;12.768;2023-02-13T16:15:02;98970.0;;;
68446;BMP280;35789;48.414;12.768;2023-02-13T16:20:03;98960.0;;;
68446;BMP280;35789;48.414;12.768;2023-02-13T16:25:11;98970.0;;;
68446;BMP280;35789;48.414;12.768;2023-02-13T16:30:06;98980.0;;;
68446;BMP280;35789;48.414;12.768;2023-02-13T16:35:25;98980.0;;;
68446;BMP280;35789;48.414;12.768;2023-02-13T16:45:20;98990.0;;;
68446;BMP280;35789;48.414;12.768;2023-02-13T16:50:00;98990.0;;;
68446;BMP280;35789;48.414;12.768;2023-02-13T16:55:01;99010.0;;;
68446;BMP280;35789;48.414;12.768;2023-02-13T17:00:05;99010.0;;;
68446;BMP280;35789;48.414;12.768;2023-02-13T17:05:15;99010.0;;;
68446;BMP280;35789;48.414;12.768;2023-02-13T17:10:03;99010.0;;;
68446;BMP280;35789;48.414;12.768;2023-02-13T17:15:00;99020.0;;;
68446;BMP280;35789;48.414;12.768;2023-02-13T17:20:00;99010.0;;;
68446;BMP280;35789;48.414;12.768;2023-02-13T17:25:04;99010.0;;;
68446;BMP280;35789;48.414;12.768;2023-02-13T17:30:00;99030.0;;;
68446;BMP280;35789;48.414;12.768;2023-02-13T17:35:00;99020.0;;;
68446;BMP280;35789;48.414;12.768;2023-02-13T17:40:00;99020.0;;;
68446;BMP280;35789;48.414;12.768;2023-02-13T17:45:00;99020.0;;;
68446;BMP280;35789;48.414;12.768;2023-02-13T17:50:00;99020.0;;;
68446;BMP280;35789;48.414;12.768;2023-02-13T17:55:00;99030.0;;;
68446;BMP280;35789;48.414;12.768;2023-02-13T18:00:00;99030.0;;;
68446;BMP280;35789;48.414;12.768;2023-02-13T18:05:00;99030.0;;;
68446;BMP280;35789;48.414;12.768;2023-02-13T18:10:00;99030.0;;;
68446;BMP280;35789;48.414;12.768;2023-02-13T18:15:00;99030.0;;;
68446;BMP280;35789;48.414;12.768;2023-02-13T18:20:00;99040.0;;;
68446;BMP280;35789;48.414;12.768;2023-02-13T18:25:01;99030.0;;;
68446;BMP280;35789;48.414;12.768;2023-02-13T18:30:00;99030.0;;;
68446;BMP280;35789;48.414;12.768;2023-02-13T18:35:00;99040.0;;;
68446;BMP280;35789;48.414;12.768;2023-02-13T18:40:01;99040.0;;;
68446;BMP280;35789;48.414;12.768;2023-02-13T18:45:00;99030.0;;;
68446;BMP280;35789;48.414;12.768;2023-02-13T18:50:00;99030.0;;;
68446;BMP280;35789;48.414;12.768;2023-02-13T18:55:00;99040.0;;;
68446;BMP280;35789;48.414;12.768;2023-02-13T19:00:00;99050.0;;;
68446;BMP280;35789;48.414;12.768;2023-02-13T19:05:00;99050.0;;;
68446;BMP280;35789;48.414;12.768;2023-02-13T19:10:00;99050.0;;;
68446;BMP280;35789;48.414;12.768;2023-02-13T19:15:00;99040.0;;;
68446;BMP280;35789;48.414;12.768;2023-02-13T19:20:00;99040.0;;;
68446;BMP280;35789;48.414;12.768;2023-02-13T19:30:02;99050.0;;;
68446;BMP280;35789;48.414;12.768;2023-02-13T19:35:00;99040.0;;;
68446;BMP280;35789;48.414;12.768;2023-02-13T19:40:00;99040.0;;;
68446;BMP280;35789;48.414;12.768;2023-02-13T19:45:00;99050.0;;;
68446;BMP280;35789;48.414;12.768;2023-02-13T19:50:00;99060.0;;;
68446;BMP280;35789;48.414;12.768;2023-02-13T19:55:00;99060.0;;;
68446;BMP280;35789;48.414;12.768;2023-02-13T20:00:00;99060.0;;;
68446;BMP280;35789;48.414;12.768;2023-02-13T20:05:00;99060.0;;;
68446;BMP280;35789;48.414;12.768;2023-02-13T20:10:00;99060.0;;;
68446;BMP280;35789;48.414;12.768;2023-02-13T20:15:00;99050.0;;;
68446;BMP280;35789;48.414;12.768;2023-02-13T20:20:00;99040.0;;;
68446;BMP280;35789;48.414;12.768;2023-02-13T20:25:00;99040.0;;;
68446;BMP280;35789;48.414;12.768;2023-02-13T20:30:00;99040.0;;;
68446;BMP280;35789;48.414;12.768;2023-02-13T20:35:00;99040.0;;;
68446;BMP280;35789;48.414;12.768;2023-02-13T20:40:00;99040.0;;;
68446;BMP280;35789;48.414;12.768;2023-02-13T20:45:01;99030.0;;;
68446;BMP280;35789;48.414;12.768;2023-02-13T20:50:00;99020.0;;;
68446;BMP280;35789;48.414;12.768;2023-02-13T20:55:00;99020.0;;;
68446;BMP280;35789;48.414;12.768;2023-02-13T21:00:00;99020.0;;;
68446;BMP280;35789;48.414;12.768;2023-02-13T21:05:00;99030.0;;;
68446;BMP280;35789;48.414;12.768;2023-02-13T21:10:00;99030.0;;;
68446;BMP280;35789;48.414;12.768;2023-02-13T21:15:00;99020.0;;;
68446;BMP280;35789;48.414;12.768;2023-02-13T21:20:00;99020.0;;;
68446;BMP280;35789;48.414;12.768;2023-02-13T21:25:01;99030.0;;;
68446;BMP280;35789;48.414;12.768;2023-02-13T21:30:00;99020.0;;;
68446;BMP280;35789;48.414;12.768;2023-02-13T21:35:00;99010.0;;;
68446;BMP280;35789;48.414;12.768;2023-02-13T21:40:00;98990.0;;;
68446;BMP280;35789;48.414;12.768;2023-02-13T21:45:00;98990.0;;;
68446;BMP280;35789;48.414;12.768;2023-02-13T21:50:00;99000.0;;;
68446;BMP280;35789;48.414;12.768;2023-02-13T21:55:00;98990.0;;;
68446;BMP280;35789;48.414;12.768;2023-02-13T22:00:00;98990.0;;;
68446;BMP280;35789;48.414;12.768;2023-02-13T22:05:00;98990.0;;;
68446;BMP280;35789;48.414;12.768;2023-02-13T22:10:00;98990.0;;;
68446;BMP280;35789;48.414;12.768;2023-02-13T22:15:00;98990.0;;;
68446;BMP280;35789;48.414;12.768;2023-02-13T22:20:00;98990.0;;;
68446;BMP280;35789;48.414;12.768;2023-02-13T22:25:00;98970.0;;;
68446;BMP280;35789;48.414;12.768;2023-02-13T22:30:03;98980.0;;;
68446;BMP280;35789;48.414;12.768;2023-02-13T22:35:00;98980.0;;;
68446;BMP280;35789;48.414;12.768;2023-02-13T22:40:00;98980.0;;;
68446;BMP280;35789;48.414;12.768;2023-02-13T22:45:00;98980.0;;;
68446;BMP280;35789;48.414;12.768;2023-02-13T22:50:00;98990.0;;;
68446;BMP280;35789;48.414;12.768;2023-02-13T22:55:00;98990.0;;;
68446;BMP280;35789;48.414;12.768;2023-02-13T23:00:00;98990.0;;;
68446;BMP280;35789;48.414;12.768;2023-02-13T23:05:00;98980.0;;;
68446;BMP280;35789;48.414;12.768;2023-02-13T23:10:00;98980.0;;;
68446;BMP280;35789;48.414;12.768;2023-02-13T23:15:01;98980.0;;;
68446;BMP280;35789;48.414;12.768;2023-02-13T23:20:00;98990.0;;;
68446;BMP280;35789;48.414;12.768;2023-02-13T23:25:00;99010.0;;;
68446;BMP280;35789;48.414;12.768;2023-02-13T23:30:02;99010.0;;;
68446;BMP280;35789;48.414;12.768;2023-02-13T23:35:00;99020.0;;;
68446;BMP280;35789;48.414;12.768;2023-02-13T23:40:00;99010.0;;;
68446;BMP280;35789;48.414;12.768;2023-02-13T23:45:00;99010.0;;;
68446;BMP280;35789;48.414;12.768;2023-02-13T23:50:00;99010.0;;;
68446;BMP280;35789;48.414;12.768;2023-02-13T23:55:00;99000.0;;;
